sensor_id;sensor_type;location;lat;lon;timestamp;pressure;altitude;pressure_sealevel;temperature
75431;BMP280;64127;51.488;5.462;2022-10-30T00:00:18;101475.91;;;19.93
75431;BMP280;64127;51.488;5.462;2022-10-30T00:02:51;101468.81;;;19.94
75431;BMP280;64127;51.488;5.462;2022-10-30T00:05:23;101467.91;;;19.92
75431;BMP280;64127;51.488;5.462;2022-10-30T00:07:56;101471.44;;;19.91
75431;BMP280;64127;51.488;5.462;2022-10-30T00:10:29;101465.09;;;19.81
75431;BMP280;64127;51.488;5.462;2022-10-30T00:13:00;101446.34;;;19.73
75431;BMP280;64127;51.488;5.462;2022-10-30T00:15:33;101455.28;;;19.76
75431;BMP280;64127;51.488;5.462;2022-10-30T00:18:06;101474.88;;;19.84
75431;BMP280;64127;51.488;5.462;2022-10-30T00:20:37;101471.31;;;19.82
75431;BMP280;64127;51.488;5.462;2022-10-30T00:23:10;101469.47;;;19.78
75431;BMP280;64127;51.488;5.462;2022-10-30T00:25:42;101469.41;;;19.71
75431;BMP280;64127;51.488;5.462;2022-10-30T00:28:14;101478.28;;;19.73
75431;BMP280;64127;51.488;5.462;2022-10-30T00:30:46;101472.03;;;19.68
75431;BMP280;64127;51.488;5.462;2022-10-30T00:33:18;101466.66;;;19.67
75431;BMP280;64127;51.488;5.462;2022-10-30T00:35:50;101473.72;;;19.63
75431;BMP280;64127;51.488;5.462;2022-10-30T00:38:22;101469.22;;;19.59
75431;BMP280;64127;51.488;5.462;2022-10-30T00:40:54;101473.59;;;19.56
75431;BMP280;64127;51.488;5.462;2022-10-30T00:43:37;101428.91;;;19.34
75431;BMP280;64127;51.488;5.462;2022-10-30T00:46:38;101457.41;;;19.41
75431;BMP280;64127;51.488;5.462;2022-10-30T00:49:19;101461.88;;;19.43
75431;BMP280;64127;51.488;5.462;2022-10-30T00:51:52;101454.75;;;19.42
75431;BMP280;64127;51.488;5.462;2022-10-30T00:54:25;101462.78;;;19.44
75431;BMP280;64127;51.488;5.462;2022-10-30T00:56:57;101443.91;;;19.30
75431;BMP280;64127;51.488;5.462;2022-10-30T00:59:36;101467.97;;;19.38
75431;BMP280;64127;51.488;5.462;2022-10-30T01:02:09;101435.72;;;19.18
75431;BMP280;64127;51.488;5.462;2022-10-30T01:04:43;101460.72;;;19.29
75431;BMP280;64127;51.488;5.462;2022-10-30T01:07:16;101460.69;;;19.24
75431;BMP280;64127;51.488;5.462;2022-10-30T01:09:48;101449.91;;;19.18
75431;BMP280;64127;51.488;5.462;2022-10-30T01:12:20;101448.09;;;19.14
75431;BMP280;64127;51.488;5.462;2022-10-30T01:14:56;101464.97;;;19.18
75431;BMP280;64127;51.488;5.462;2022-10-30T01:21:06;101449.56;;;18.97
75431;BMP280;64127;51.488;5.462;2022-10-30T01:26:43;101472.69;;;19.01
75431;BMP280;64127;51.488;5.462;2022-10-30T01:29:54;101474.28;;;18.92
75431;BMP280;64127;51.488;5.462;2022-10-30T01:32:40;101465.28;;;18.84
75431;BMP280;64127;51.488;5.462;2022-10-30T01:35:23;101450.13;;;18.77
75431;BMP280;64127;51.488;5.462;2022-10-30T01:40:51;101466.13;;;18.80
75431;BMP280;64127;51.488;5.462;2022-10-30T01:43:23;101458.84;;;18.71
75431;BMP280;64127;51.488;5.462;2022-10-30T01:57:38;101482.72;;;18.68
75431;BMP280;64127;51.488;5.462;2022-10-30T02:00:16;101483.56;;;18.67
75431;BMP280;64127;51.488;5.462;2022-10-30T02:02:50;101473.63;;;18.57
75431;BMP280;64127;51.488;5.462;2022-10-30T02:05:44;101463.81;;;18.51
75431;BMP280;64127;51.488;5.462;2022-10-30T02:08:20;101491.47;;;18.64
75431;BMP280;64127;51.488;5.462;2022-10-30T02:10:53;101483.56;;;18.65
75431;BMP280;64127;51.488;5.462;2022-10-30T02:13:25;101494.19;;;18.65
75431;BMP280;64127;51.488;5.462;2022-10-30T02:15:58;101497.66;;;18.61
75431;BMP280;64127;51.488;5.462;2022-10-30T02:18:30;101492.28;;;18.58
75431;BMP280;64127;51.488;5.462;2022-10-30T02:21:02;101491.41;;;18.59
75431;BMP280;64127;51.488;5.462;2022-10-30T02:23:35;101492.28;;;18.58
75431;BMP280;64127;51.488;5.462;2022-10-30T02:26:07;101493.13;;;18.57
75431;BMP280;64127;51.488;5.462;2022-10-30T02:28:39;101496.53;;;18.50
75431;BMP280;64127;51.488;5.462;2022-10-30T02:31:11;101511.53;;;18.50
75431;BMP280;64127;51.488;5.462;2022-10-30T02:33:47;101494.63;;;18.46
75431;BMP280;64127;51.488;5.462;2022-10-30T02:36:19;101507.06;;;18.46
75431;BMP280;64127;51.488;5.462;2022-10-30T02:38:51;101480.25;;;18.34
75431;BMP280;64127;51.488;5.462;2022-10-30T02:41:23;101502.56;;;18.43
75431;BMP280;64127;51.488;5.462;2022-10-30T02:43:55;101503.44;;;18.42
75431;BMP280;64127;51.488;5.462;2022-10-30T02:46:27;101501.59;;;18.38
75431;BMP280;64127;51.488;5.462;2022-10-30T02:48:59;101501.53;;;18.37
75431;BMP280;64127;51.488;5.462;2022-10-30T02:51:32;101497.88;;;18.30
75431;BMP280;64127;51.488;5.462;2022-10-30T02:54:04;101507.75;;;18.37
75431;BMP280;64127;51.488;5.462;2022-10-30T02:56:39;101512.22;;;18.38
75431;BMP280;64127;51.488;5.462;2022-10-30T02:59:11;101508.59;;;18.36
75431;BMP280;64127;51.488;5.462;2022-10-30T03:01:43;101499.59;;;18.28
75431;BMP280;64127;51.488;5.462;2022-10-30T03:04:15;101467.41;;;18.11
75431;BMP280;64127;51.488;5.462;2022-10-30T03:06:47;101498.81;;;18.32
75431;BMP280;64127;51.488;5.462;2022-10-30T03:09:19;101500.56;;;18.32
75431;BMP280;64127;51.488;5.462;2022-10-30T03:11:51;101468.38;;;18.15
75431;BMP280;64127;51.488;5.462;2022-10-30T03:14:23;101495.09;;;18.24
75431;BMP280;64127;51.488;5.462;2022-10-30T03:16:55;101487.97;;;18.23
75431;BMP280;64127;51.488;5.462;2022-10-30T03:19:27;101465.50;;;18.06
75431;BMP280;64127;51.488;5.462;2022-10-30T03:21:59;101496.91;;;18.25
75431;BMP280;64127;51.488;5.462;2022-10-30T03:24:34;101486.19;;;18.22
75431;BMP280;64127;51.488;5.462;2022-10-30T03:27:06;101495.94;;;18.21
75431;BMP280;64127;51.488;5.462;2022-10-30T03:29:38;101497.63;;;18.18
75431;BMP280;64127;51.488;5.462;2022-10-30T03:32:10;101494.00;;;18.14
75431;BMP280;64127;51.488;5.462;2022-10-30T03:34:42;101477.91;;;18.07
75431;BMP280;64127;51.488;5.462;2022-10-30T03:37:14;101478.03;;;18.11
75431;BMP280;64127;51.488;5.462;2022-10-30T03:39:46;101486.84;;;18.10
75431;BMP280;64127;51.488;5.462;2022-10-30T03:42:18;101494.03;;;18.16
75431;BMP280;64127;51.488;5.462;2022-10-30T03:44:50;101493.13;;;18.15
75431;BMP280;64127;51.488;5.462;2022-10-30T03:47:22;101474.38;;;18.06
75431;BMP280;64127;51.488;5.462;2022-10-30T03:49:54;101471.78;;;18.09
75431;BMP280;64127;51.488;5.462;2022-10-30T03:52:26;101496.75;;;18.19
75431;BMP280;64127;51.488;5.462;2022-10-30T03:54:58;101496.75;;;18.19
75431;BMP280;64127;51.488;5.462;2022-10-30T03:57:30;101503.81;;;18.18
75431;BMP280;64127;51.488;5.462;2022-10-30T04:00:03;101503.78;;;18.17
75431;BMP280;64127;51.488;5.462;2022-10-30T04:02:36;101491.25;;;18.10
75431;BMP280;64127;51.488;5.462;2022-10-30T04:05:08;101501.03;;;18.12
75431;BMP280;64127;51.488;5.462;2022-10-30T04:07:40;101508.97;;;18.11
75431;BMP280;64127;51.488;5.462;2022-10-30T04:10:13;101500.97;;;18.08
75431;BMP280;64127;51.488;5.462;2022-10-30T04:13:05;101505.31;;;18.04
75431;BMP280;64127;51.488;5.462;2022-10-30T04:15:38;101508.91;;;18.08
75431;BMP280;64127;51.488;5.462;2022-10-30T04:18:12;101512.47;;;18.10
75431;BMP280;64127;51.488;5.462;2022-10-30T04:20:45;101497.28;;;18.01
75431;BMP280;64127;51.488;5.462;2022-10-30T04:23:19;101507.94;;;18.04
75431;BMP280;64127;51.488;5.462;2022-10-30T04:25:51;101504.41;;;18.05
75431;BMP280;64127;51.488;5.462;2022-10-30T04:28:23;101495.47;;;18.00
75431;BMP280;64127;51.488;5.462;2022-10-30T04:30:55;101508.00;;;18.07
75431;BMP280;64127;51.488;5.462;2022-10-30T04:33:27;101514.19;;;18.06
75431;BMP280;64127;51.488;5.462;2022-10-30T04:35:59;101513.22;;;18.03
75431;BMP280;64127;51.488;5.462;2022-10-30T04:38:31;101508.75;;;18.02
75431;BMP280;64127;51.488;5.462;2022-10-30T04:41:03;101506.94;;;17.98
75431;BMP280;64127;51.488;5.462;2022-10-30T04:43:35;101478.38;;;17.88
75431;BMP280;64127;51.488;5.462;2022-10-30T04:46:07;101496.44;;;18.04
75431;BMP280;64127;51.488;5.462;2022-10-30T04:48:39;101482.09;;;17.96
75431;BMP280;64127;51.488;5.462;2022-10-30T04:51:11;101501.75;;;18.04
75431;BMP280;64127;51.488;5.462;2022-10-30T04:53:44;101466.00;;;17.87
75431;BMP280;64127;51.488;5.462;2022-10-30T04:56:16;101487.53;;;18.02
75431;BMP280;64127;51.488;5.462;2022-10-30T04:58:48;101487.53;;;18.02
75431;BMP280;64127;51.488;5.462;2022-10-30T05:01:19;101473.34;;;18.00
75431;BMP280;64127;51.488;5.462;2022-10-30T05:03:52;101464.47;;;17.99
75431;BMP280;64127;51.488;5.462;2022-10-30T05:06:28;101458.94;;;17.89
75431;BMP280;64127;51.488;5.462;2022-10-30T05:09:01;101475.88;;;17.95
75431;BMP280;64127;51.488;5.462;2022-10-30T05:11:33;101450.75;;;17.77
75431;BMP280;64127;51.488;5.462;2022-10-30T05:14:05;101467.69;;;17.85
75431;BMP280;64127;51.488;5.462;2022-10-30T05:16:37;101471.41;;;17.93
75431;BMP280;64127;51.488;5.462;2022-10-30T05:19:09;101476.66;;;17.90
75431;BMP280;64127;51.488;5.462;2022-10-30T05:21:41;101459.66;;;17.82
75431;BMP280;64127;51.488;5.462;2022-10-30T05:24:13;101472.22;;;17.89
75431;BMP280;64127;51.488;5.462;2022-10-30T05:26:45;101473.00;;;17.85
75431;BMP280;64127;51.488;5.462;2022-10-30T05:29:17;101456.81;;;17.72
75431;BMP280;64127;51.488;5.462;2022-10-30T05:31:49;101458.47;;;17.67
75431;BMP280;64127;51.488;5.462;2022-10-30T05:34:21;101475.53;;;17.79
75431;BMP280;64127;51.488;5.462;2022-10-30T05:36:53;101459.19;;;17.60
75431;BMP280;64127;51.488;5.462;2022-10-30T05:39:25;101482.50;;;17.73
75431;BMP280;64127;51.488;5.462;2022-10-30T05:41:57;101485.00;;;17.67
75431;BMP280;64127;51.488;5.462;2022-10-30T05:44:29;101456.25;;;17.48
75431;BMP280;64127;51.488;5.462;2022-10-30T05:47:21;101461.53;;;17.48
75431;BMP280;64127;51.488;5.462;2022-10-30T05:49:53;101471.38;;;17.54
75431;BMP280;64127;51.488;5.462;2022-10-30T05:52:25;101487.34;;;17.55
75431;BMP280;64127;51.488;5.462;2022-10-30T05:54:57;101486.44;;;17.55
75431;BMP280;64127;51.488;5.462;2022-10-30T05:57:29;101460.38;;;17.37
75431;BMP280;64127;51.488;5.462;2022-10-30T06:00:05;101475.44;;;17.38
75431;BMP280;64127;51.488;5.462;2022-10-30T06:02:37;101488.88;;;17.46
75431;BMP280;64127;51.488;5.462;2022-10-30T06:05:09;101482.50;;;17.38
75431;BMP280;64127;51.488;5.462;2022-10-30T06:07:41;101490.50;;;17.39
75431;BMP280;64127;51.488;5.462;2022-10-30T06:10:13;101442.97;;;17.11
75431;BMP280;64127;51.488;5.462;2022-10-30T06:12:56;101492.06;;;17.31
75431;BMP280;64127;51.488;5.462;2022-10-30T06:15:29;101492.91;;;17.30
75431;BMP280;64127;51.488;5.462;2022-10-30T06:18:02;101491.03;;;17.26
75431;BMP280;64127;51.488;5.462;2022-10-30T06:20:34;101498.00;;;17.21
75431;BMP280;64127;51.488;5.462;2022-10-30T06:23:08;101502.38;;;17.19
75431;BMP280;64127;51.488;5.462;2022-10-30T06:25:41;101490.78;;;17.51
75431;BMP280;64127;51.488;5.462;2022-10-30T06:28:13;101487.41;;;17.21
75431;BMP280;64127;51.488;5.462;2022-10-30T06:30:45;101485.22;;;17.05
75431;BMP280;64127;51.488;5.462;2022-10-30T06:33:17;101487.06;;;17.09
75431;BMP280;64127;51.488;5.462;2022-10-30T06:35:49;101483.50;;;17.07
75431;BMP280;64127;51.488;5.462;2022-10-30T06:38:21;101489.66;;;17.06
75431;BMP280;64127;51.488;5.462;2022-10-30T06:40:53;101471.69;;;16.94
75431;BMP280;64127;51.488;5.462;2022-10-30T06:43:25;101480.56;;;16.96
75431;BMP280;64127;51.488;5.462;2022-10-30T06:45:57;101490.31;;;16.97
75431;BMP280;64127;51.488;5.462;2022-10-30T06:48:29;101477.00;;;16.94
75431;BMP280;64127;51.488;5.462;2022-10-30T06:51:02;101483.19;;;16.95
75431;BMP280;64127;51.488;5.462;2022-10-30T06:53:34;101484.00;;;16.92
75431;BMP280;64127;51.488;5.462;2022-10-30T06:56:08;101484.00;;;16.92
75431;BMP280;64127;51.488;5.462;2022-10-30T06:58:40;101483.06;;;16.90
75431;BMP280;64127;51.488;5.462;2022-10-30T07:01:12;101483.97;;;16.91
75431;BMP280;64127;51.488;5.462;2022-10-30T07:03:44;101483.97;;;16.91
75431;BMP280;64127;51.488;5.462;2022-10-30T07:06:16;101444.59;;;16.71
75431;BMP280;64127;51.488;5.462;2022-10-30T07:08:49;101483.06;;;16.90
75431;BMP280;64127;51.488;5.462;2022-10-30T07:11:21;101479.53;;;16.90
75431;BMP280;64127;51.488;5.462;2022-10-30T07:13:52;101480.47;;;16.92
75431;BMP280;64127;51.488;5.462;2022-10-30T07:16:24;101462.72;;;16.88
75431;BMP280;64127;51.488;5.462;2022-10-30T07:18:56;101469.88;;;16.92
75431;BMP280;64127;51.488;5.462;2022-10-30T07:21:35;101474.38;;;16.96
75431;BMP280;64127;51.488;5.462;2022-10-30T07:24:07;101474.56;;;17.02
75431;BMP280;64127;51.488;5.462;2022-10-30T07:26:39;101476.31;;;17.03
75431;BMP280;64127;51.488;5.462;2022-10-30T07:29:11;101476.47;;;17.09
75431;BMP280;64127;51.488;5.462;2022-10-30T07:31:45;101469.41;;;17.08
75431;BMP280;64127;51.488;5.462;2022-10-30T07:34:33;101465.06;;;17.11
75431;BMP280;64127;51.488;5.462;2022-10-30T07:37:05;101475.06;;;17.23
75431;BMP280;64127;51.488;5.462;2022-10-30T07:39:37;101454.53;;;17.14
75431;BMP280;64127;51.488;5.462;2022-10-30T07:42:10;101483.28;;;17.34
75431;BMP280;64127;51.488;5.462;2022-10-30T07:44:42;101475.41;;;17.37
75431;BMP280;64127;51.488;5.462;2022-10-30T07:47:14;101476.47;;;17.45
75431;BMP280;64127;51.488;5.462;2022-10-30T07:49:46;101472.09;;;17.47
75431;BMP280;64127;51.488;5.462;2022-10-30T07:52:18;101457.97;;;17.46
75431;BMP280;64127;51.488;5.462;2022-10-30T07:54:49;101471.53;;;17.58
75431;BMP280;64127;51.488;5.462;2022-10-30T07:57:21;101470.75;;;17.62
75431;BMP280;64127;51.488;5.462;2022-10-30T07:59:53;101471.66;;;17.64
75431;BMP280;64127;51.488;5.462;2022-10-30T08:02:30;101473.56;;;17.70
75431;BMP280;64127;51.488;5.462;2022-10-30T08:05:04;101460.47;;;17.78
75431;BMP280;64127;51.488;5.462;2022-10-30T08:07:37;101438.38;;;17.77
75431;BMP280;64127;51.488;5.462;2022-10-30T08:10:10;101442.34;;;17.97
75431;BMP280;64127;51.488;5.462;2022-10-30T08:12:42;101478.38;;;18.28
75431;BMP280;64127;51.488;5.462;2022-10-30T08:15:16;101453.53;;;18.26
75431;BMP280;64127;51.488;5.462;2022-10-30T08:17:50;101470.03;;;18.53
75431;BMP280;64127;51.488;5.462;2022-10-30T08:20:23;101464.91;;;18.62
75431;BMP280;64127;51.488;5.462;2022-10-30T08:22:56;101467.63;;;18.65
75431;BMP280;64127;51.488;5.462;2022-10-30T08:25:30;101439.16;;;18.58
75431;BMP280;64127;51.488;5.462;2022-10-30T08:28:06;101383.75;;;18.33
75431;BMP280;64127;51.488;5.462;2022-10-30T08:30:41;101442.81;;;18.66
75431;BMP280;64127;51.488;5.462;2022-10-30T08:33:13;101470.53;;;18.81
75431;BMP280;64127;51.488;5.462;2022-10-30T08:35:54;101480.44;;;18.89
75431;BMP280;64127;51.488;5.462;2022-10-30T08:38:29;101476.22;;;19.02
75431;BMP280;64127;51.488;5.462;2022-10-30T08:41:01;101469.31;;;19.11
75431;BMP280;64127;51.488;5.462;2022-10-30T08:43:33;101468.47;;;19.14
75431;BMP280;64127;51.488;5.462;2022-10-30T08:46:05;101461.38;;;19.13
75431;BMP280;64127;51.488;5.462;2022-10-30T08:48:37;101422.16;;;19.00
75431;BMP280;64127;51.488;5.462;2022-10-30T08:51:09;101441.94;;;19.17
75431;BMP280;64127;51.488;5.462;2022-10-30T08:53:41;101462.63;;;19.36
75431;BMP280;64127;51.488;5.462;2022-10-30T08:56:13;101446.69;;;19.38
75431;BMP280;64127;51.488;5.462;2022-10-30T08:58:45;101442.44;;;19.47
75431;BMP280;64127;51.488;5.462;2022-10-30T09:01:17;101446.94;;;19.53
75431;BMP280;64127;51.488;5.462;2022-10-30T09:03:50;101453.28;;;19.62
75431;BMP280;64127;51.488;5.462;2022-10-30T09:06:22;101460.66;;;19.82
75431;BMP280;64127;51.488;5.462;2022-10-30T09:08:54;101462.69;;;20.01
75431;BMP280;64127;51.488;5.462;2022-10-30T09:11:26;101459.38;;;20.17
75431;BMP280;64127;51.488;5.462;2022-10-30T09:13:58;101385.41;;;19.95
75431;BMP280;64127;51.488;5.462;2022-10-30T09:16:30;101416.91;;;20.29
75431;BMP280;64127;51.488;5.462;2022-10-30T09:19:02;101456.41;;;20.69
75431;BMP280;64127;51.488;5.462;2022-10-30T09:21:34;101449.50;;;20.88
75431;BMP280;64127;51.488;5.462;2022-10-30T09:24:06;101444.31;;;21.05
75431;BMP280;64127;51.488;5.462;2022-10-30T09:26:39;101437.38;;;21.25
75431;BMP280;64127;51.488;5.462;2022-10-30T09:29:11;101434.84;;;21.40
75431;BMP280;64127;51.488;5.462;2022-10-30T09:31:42;101423.28;;;21.47
75431;BMP280;64127;51.488;5.462;2022-10-30T09:34:15;101419.75;;;21.51
75431;BMP280;64127;51.488;5.462;2022-10-30T09:36:47;101430.50;;;21.60
75431;BMP280;64127;51.488;5.462;2022-10-30T09:39:20;101409.09;;;21.54
75431;BMP280;64127;51.488;5.462;2022-10-30T09:42:39;101435.91;;;21.75
75431;BMP280;64127;51.488;5.462;2022-10-30T10:06:35;101415.91;;;21.10
75431;BMP280;64127;51.488;5.462;2022-10-30T10:09:24;101462.38;;;21.41
75431;BMP280;64127;51.488;5.462;2022-10-30T10:12:11;101445.44;;;21.30
75431;BMP280;64127;51.488;5.462;2022-10-30T10:14:46;101449.03;;;21.36
75431;BMP280;64127;51.488;5.462;2022-10-30T10:17:33;101438.38;;;21.42
75431;BMP280;64127;51.488;5.462;2022-10-30T10:20:29;101446.53;;;21.60
75431;BMP280;64127;51.488;5.462;2022-10-30T10:23:20;101448.38;;;21.77
75431;BMP280;64127;51.488;5.462;2022-10-30T10:26:15;101456.56;;;22.01
75431;BMP280;64127;51.488;5.462;2022-10-30T10:50:21;101408.56;;;22.37
75431;BMP280;64127;51.488;5.462;2022-10-30T10:53:02;101419.28;;;22.49
75431;BMP280;64127;51.488;5.462;2022-10-30T10:55:47;101434.50;;;22.68
75431;BMP280;64127;51.488;5.462;2022-10-30T10:58:33;101439.88;;;22.87
75431;BMP280;64127;51.488;5.462;2022-10-30T11:01:17;101434.50;;;23.02
75431;BMP280;64127;51.488;5.462;2022-10-30T11:06:50;101411.34;;;22.98
75431;BMP280;64127;51.488;5.462;2022-10-30T11:09:25;101434.53;;;23.14
75431;BMP280;64127;51.488;5.462;2022-10-30T11:11:58;101412.22;;;23.09
75431;BMP280;64127;51.488;5.462;2022-10-30T11:14:33;101422.91;;;23.35
75431;BMP280;64127;51.488;5.462;2022-10-30T11:17:21;101420.25;;;23.42
75431;BMP280;64127;51.488;5.462;2022-10-30T11:20:17;101355.13;;;23.05
75431;BMP280;64127;51.488;5.462;2022-10-30T11:22:50;101373.84;;;23.16
75431;BMP280;64127;51.488;5.462;2022-10-30T11:25:25;101354.25;;;22.97
75431;BMP280;64127;51.488;5.462;2022-10-30T11:28:04;101416.66;;;23.31
75431;BMP280;64127;51.488;5.462;2022-10-30T11:30:37;101420.25;;;23.32
75431;BMP280;64127;51.488;5.462;2022-10-30T11:33:27;101394.38;;;23.20
75431;BMP280;64127;51.488;5.462;2022-10-30T11:36:08;101334.63;;;22.85
75431;BMP280;64127;51.488;5.462;2022-10-30T11:38:46;101329.31;;;22.79
75431;BMP280;64127;51.488;5.462;2022-10-30T11:41:19;101414.00;;;23.31
75431;BMP280;64127;51.488;5.462;2022-10-30T11:43:51;101415.78;;;23.28
75431;BMP280;64127;51.488;5.462;2022-10-30T11:46:24;101410.41;;;23.26
75431;BMP280;64127;51.488;5.462;2022-10-30T11:48:56;101391.69;;;23.23
75431;BMP280;64127;51.488;5.462;2022-10-30T11:51:39;101402.38;;;23.29
75431;BMP280;64127;51.488;5.462;2022-10-30T11:54:19;101391.69;;;23.23
75431;BMP280;64127;51.488;5.462;2022-10-30T11:56:52;101405.97;;;23.28
75431;BMP280;64127;51.488;5.462;2022-10-30T11:59:25;101400.59;;;23.19
75431;BMP280;64127;51.488;5.462;2022-10-30T12:02:21;101397.06;;;23.08
75431;BMP280;64127;51.488;5.462;2022-10-30T12:05:01;101399.75;;;22.97
75431;BMP280;64127;51.488;5.462;2022-10-30T12:07:33;101404.22;;;22.91
75431;BMP280;64127;51.488;5.462;2022-10-30T12:10:29;101412.25;;;22.88
75431;BMP280;64127;51.488;5.462;2022-10-30T12:13:04;101391.72;;;22.84
75431;BMP280;64127;51.488;5.462;2022-10-30T12:15:37;101389.06;;;22.81
75431;BMP280;64127;51.488;5.462;2022-10-30T12:18:20;101388.16;;;22.82
75431;BMP280;64127;51.488;5.462;2022-10-30T12:20:56;101389.03;;;22.79
75431;BMP280;64127;51.488;5.462;2022-10-30T12:23:29;101393.50;;;22.76
75431;BMP280;64127;51.488;5.462;2022-10-30T12:26:10;101380.06;;;22.60
75431;BMP280;64127;51.488;5.462;2022-10-30T12:28:59;101365.81;;;22.48
75431;BMP280;64127;51.488;5.462;2022-10-30T12:31:54;101361.34;;;22.42
75431;BMP280;64127;51.488;5.462;2022-10-30T12:34:49;101388.09;;;22.54
75431;BMP280;64127;51.488;5.462;2022-10-30T12:37:28;101367.59;;;22.41
75431;BMP280;64127;51.488;5.462;2022-10-30T12:40:13;101361.34;;;22.45
75431;BMP280;64127;51.488;5.462;2022-10-30T12:43:09;101379.22;;;22.72
75431;BMP280;64127;51.488;5.462;2022-10-30T12:45:46;101358.72;;;22.63
75431;BMP280;64127;51.488;5.462;2022-10-30T12:48:49;101320.34;;;22.34
75431;BMP280;64127;51.488;5.462;2022-10-30T12:51:40;101391.69;;;22.78
75431;BMP280;64127;51.488;5.462;2022-10-30T12:54:35;101358.72;;;22.72
75431;BMP280;64127;51.488;5.462;2022-10-30T12:57:24;101347.13;;;22.90
75431;BMP280;64127;51.488;5.462;2022-10-30T13:00:09;101341.78;;;22.89
75431;BMP280;64127;51.488;5.462;2022-10-30T13:02:57;101356.91;;;23.06
75431;BMP280;64127;51.488;5.462;2022-10-30T13:06:04;101372.06;;;23.16
75431;BMP280;64127;51.488;5.462;2022-10-30T13:09:14;101358.63;;;23.47
75431;BMP280;64127;51.488;5.462;2022-10-30T13:14:52;101366.38;;;24.15
75431;BMP280;64127;51.488;5.462;2022-10-30T13:17:25;101341.38;;;24.17
75431;BMP280;64127;51.488;5.462;2022-10-30T13:19:59;101361.00;;;24.19
75431;BMP280;64127;51.488;5.462;2022-10-30T13:26:00;101364.72;;;23.84
75431;BMP280;64127;51.488;5.462;2022-10-30T13:28:54;101357.69;;;23.60
75431;BMP280;64127;51.488;5.462;2022-10-30T13:35:08;101374.69;;;23.47
75431;BMP280;64127;51.488;5.462;2022-10-30T13:41:10;101357.78;;;23.19
75431;BMP280;64127;51.488;5.462;2022-10-30T13:50:36;101372.09;;;22.94
75431;BMP280;64127;51.488;5.462;2022-10-30T13:53:21;101368.53;;;22.89
75431;BMP280;64127;51.488;5.462;2022-10-30T13:55:56;101347.13;;;22.78
75431;BMP280;64127;51.488;5.462;2022-10-30T13:58:35;101313.25;;;22.48
75431;BMP280;64127;51.488;5.462;2022-10-30T14:01:32;101374.78;;;22.72
75431;BMP280;64127;51.488;5.462;2022-10-30T14:04:19;101375.66;;;22.78
75431;BMP280;64127;51.488;5.462;2022-10-30T14:10:38;101358.72;;;23.01
75431;BMP280;64127;51.488;5.462;2022-10-30T14:13:26;101375.59;;;23.26
75431;BMP280;64127;51.488;5.462;2022-10-30T14:16:06;101356.88;;;23.15
75431;BMP280;64127;51.488;5.462;2022-10-30T14:18:59;101367.63;;;23.09
75431;BMP280;64127;51.488;5.462;2022-10-30T14:24:18;101381.00;;;22.96
75431;BMP280;64127;51.488;5.462;2022-10-30T14:27:08;101376.56;;;22.86
75431;BMP280;64127;51.488;5.462;2022-10-30T14:29:48;101361.41;;;22.76
75431;BMP280;64127;51.488;5.462;2022-10-30T14:43:44;101343.47;;;23.47
75431;BMP280;64127;51.488;5.462;2022-10-30T14:46:35;101360.19;;;24.02
75431;BMP280;64127;51.488;5.462;2022-10-30T14:55:34;101366.56;;;23.79
75431;BMP280;64127;51.488;5.462;2022-10-30T14:58:20;101385.13;;;24.19
75431;BMP280;64127;51.488;5.462;2022-10-30T15:04:23;101397.63;;;24.27
75431;BMP280;64127;51.488;5.462;2022-10-30T15:07:07;101391.41;;;24.20
75431;BMP280;64127;51.488;5.462;2022-10-30T15:10:24;101392.31;;;24.16
75431;BMP280;64127;51.488;5.462;2022-10-30T15:13:08;101362.00;;;23.97
75431;BMP280;64127;51.488;5.462;2022-10-30T15:15:44;101408.41;;;24.07
75431;BMP280;64127;51.488;5.462;2022-10-30T15:18:19;101411.19;;;23.86
75431;BMP280;64127;51.488;5.462;2022-10-30T15:26:35;101352.50;;;22.70
75431;BMP280;64127;51.488;5.462;2022-10-30T15:29:17;101414.88;;;22.85
75431;BMP280;64127;51.488;5.462;2022-10-30T15:32:03;101414.00;;;22.72
75431;BMP280;64127;51.488;5.462;2022-10-30T15:34:35;101428.25;;;22.68
75431;BMP280;64127;51.488;5.462;2022-10-30T15:37:11;101416.63;;;22.49
75431;BMP280;64127;51.488;5.462;2022-10-30T15:39:43;101431.75;;;22.41
75431;BMP280;64127;51.488;5.462;2022-10-30T15:42:15;101458.47;;;22.41
75431;BMP280;64127;51.488;5.462;2022-10-30T15:44:48;101426.34;;;22.24
75431;BMP280;64127;51.488;5.462;2022-10-30T15:47:20;101446.84;;;22.24
75431;BMP280;64127;51.488;5.462;2022-10-30T15:49:53;101464.69;;;22.28
75431;BMP280;64127;51.488;5.462;2022-10-30T15:52:31;101475.34;;;22.22
75431;BMP280;64127;51.488;5.462;2022-10-30T15:55:09;101491.38;;;22.20
75431;BMP280;64127;51.488;5.462;2022-10-30T15:57:50;101453.75;;;21.86
75431;BMP280;64127;51.488;5.462;2022-10-30T16:00:38;101452.84;;;21.74
75431;BMP280;64127;51.488;5.462;2022-10-30T16:03:17;101501.94;;;21.95
75431;BMP280;64127;51.488;5.462;2022-10-30T16:05:50;101449.16;;;21.56
75431;BMP280;64127;51.488;5.462;2022-10-30T16:08:23;101497.31;;;21.75
75431;BMP280;64127;51.488;5.462;2022-10-30T16:10:55;101510.66;;;21.72
75431;BMP280;64127;51.488;5.462;2022-10-30T16:13:29;101516.94;;;21.74
75431;BMP280;64127;51.488;5.462;2022-10-30T16:16:03;101528.44;;;21.67
75431;BMP280;64127;51.488;5.462;2022-10-30T16:18:35;101514.06;;;21.52
75431;BMP280;64127;51.488;5.462;2022-10-30T16:21:14;101537.19;;;21.51
75431;BMP280;64127;51.488;5.462;2022-10-30T16:23:54;101541.66;;;21.49
75431;BMP280;64127;51.488;5.462;2022-10-30T16:26:36;101543.66;;;21.78
75431;BMP280;64127;51.488;5.462;2022-10-30T16:29:19;101546.03;;;21.44
75431;BMP280;64127;51.488;5.462;2022-10-30T16:31:53;101540.59;;;21.32
75431;BMP280;64127;51.488;5.462;2022-10-30T16:34:30;101536.16;;;21.34
75431;BMP280;64127;51.488;5.462;2022-10-30T16:37:18;101537.00;;;21.27
75431;BMP280;64127;51.488;5.462;2022-10-30T16:39:52;101540.66;;;21.38
75431;BMP280;64127;51.488;5.462;2022-10-30T16:42:25;101530.84;;;21.33
75431;BMP280;64127;51.488;5.462;2022-10-30T16:48:15;101535.03;;;21.09
75431;BMP280;64127;51.488;5.462;2022-10-30T16:51:02;101545.69;;;21.08